createdAt,value
2018-07-20T00:01:41.766Z,99723.00
2018-07-20T00:04:11.695Z,99722.00
2018-07-20T00:06:41.623Z,99721.00
2018-07-20T00:09:11.501Z,99719.00
2018-07-20T00:11:41.443Z,99714.00
2018-07-20T00:14:11.371Z,99716.00
2018-07-20T00:16:41.088Z,99714.00
2018-07-20T00:19:10.940Z,99710.00
2018-07-20T00:21:40.783Z,99710.00
2018-07-20T00:24:10.713Z,99707.00
2018-07-20T00:26:40.669Z,99700.00
2018-07-20T00:29:10.673Z,99703.00
2018-07-20T00:31:40.671Z,99703.00
2018-07-20T00:34:10.735Z,99700.00
2018-07-20T00:36:40.766Z,99699.00
2018-07-20T00:39:11.456Z,99698.00
2018-07-20T00:41:41.748Z,99691.00
2018-07-20T00:44:11.883Z,99689.00
2018-07-20T00:46:41.840Z,99687.00
2018-07-20T00:49:11.738Z,99688.00
2018-07-20T00:51:41.592Z,99690.00
2018-07-20T00:54:11.699Z,99687.00
2018-07-20T00:56:41.711Z,99692.00
2018-07-20T00:59:12.007Z,99701.00
2018-07-20T01:01:42.004Z,99698.00
2018-07-20T01:04:12.338Z,99689.00
2018-07-20T01:06:42.366Z,99689.00
2018-07-20T01:09:12.304Z,99687.00
2018-07-20T01:11:42.323Z,99682.00
2018-07-20T01:14:12.296Z,99686.00
2018-07-20T01:16:42.320Z,99688.00
2018-07-20T01:19:12.417Z,99690.00
2018-07-20T01:21:42.460Z,99688.00
2018-07-20T01:24:12.478Z,99685.00
2018-07-20T01:26:42.495Z,99685.00
2018-07-20T01:29:12.478Z,99681.00
2018-07-20T01:31:42.384Z,99682.00
2018-07-20T01:34:12.396Z,99680.00
2018-07-20T01:36:42.348Z,99679.00
2018-07-20T01:39:12.765Z,99675.00
2018-07-20T01:41:42.796Z,99672.00
2018-07-20T01:44:12.751Z,99676.00
2018-07-20T01:46:42.857Z,99673.00
2018-07-20T01:49:12.785Z,99672.00
2018-07-20T01:51:42.714Z,99676.00
2018-07-20T01:54:12.479Z,99672.00
2018-07-20T01:56:42.414Z,99670.00
2018-07-20T01:59:12.254Z,99666.00
2018-07-20T02:01:42.223Z,99670.00
2018-07-20T02:04:12.254Z,99672.00
2018-07-20T02:06:42.241Z,99668.00
2018-07-20T02:09:12.609Z,99667.00
2018-07-20T02:11:42.540Z,99669.00
2018-07-20T02:14:12.585Z,99673.00
2018-07-20T02:16:42.788Z,99675.00
2018-07-20T02:19:12.800Z,99674.00
2018-07-20T02:21:42.760Z,99670.00
2018-07-20T02:24:12.744Z,99675.00
2018-07-20T02:26:42.484Z,99671.00
2018-07-20T02:29:12.462Z,99665.00
2018-07-20T02:31:42.391Z,99667.00
2018-07-20T02:34:12.408Z,99667.00
2018-07-20T02:36:42.453Z,99666.00
2018-07-20T02:39:13.816Z,99666.00
2018-07-20T02:41:43.708Z,99663.00
2018-07-20T02:44:13.673Z,99664.00
2018-07-20T02:46:43.633Z,99661.00
2018-07-20T02:49:13.714Z,99657.00
2018-07-20T02:51:43.676Z,99655.00
2018-07-20T02:54:13.769Z,99664.00
2018-07-20T02:56:43.466Z,99659.00
2018-07-20T02:59:13.342Z,99663.00
2018-07-20T03:01:43.556Z,99667.00
2018-07-20T03:04:13.360Z,99665.00
2018-07-20T03:06:43.247Z,99666.00
2018-07-20T03:09:14.128Z,99669.00
2018-07-20T03:11:44.468Z,99667.00
2018-07-20T03:14:14.446Z,99669.00
2018-07-20T03:16:44.385Z,99668.00
2018-07-20T03:19:14.440Z,99665.00
2018-07-20T03:21:44.447Z,99661.00
2018-07-20T03:24:14.424Z,99665.00
2018-07-20T03:26:44.493Z,99664.00
2018-07-20T03:29:14.433Z,99670.00
2018-07-20T03:31:44.228Z,99671.00
2018-07-20T03:34:14.174Z,99667.00
2018-07-20T03:36:44.124Z,99665.00
2018-07-20T03:39:14.143Z,99662.00
2018-07-20T03:41:44.120Z,99655.00
2018-07-20T03:44:13.971Z,99654.00
2018-07-20T03:46:43.830Z,99655.00
2018-07-20T03:49:13.692Z,99654.00
2018-07-20T03:51:43.664Z,99658.00
2018-07-20T03:54:13.645Z,99647.00
2018-07-20T03:56:43.616Z,99652.00
2018-07-20T03:59:13.622Z,99651.00
2018-07-20T04:01:43.535Z,99651.00
2018-07-20T04:04:13.124Z,99649.00
2018-07-20T04:06:42.992Z,99652.00
2018-07-20T04:09:12.878Z,99651.00
2018-07-20T04:11:42.751Z,99647.00
2018-07-20T04:14:12.838Z,99648.00
2018-07-20T04:16:42.874Z,99644.00
2018-07-20T04:19:12.902Z,99649.00
2018-07-20T04:21:42.930Z,99642.00
2018-07-20T04:24:12.961Z,99646.00
2018-07-20T04:26:43.028Z,99644.00
2018-07-20T04:29:12.817Z,99641.00
2018-07-20T04:31:42.748Z,99644.00
2018-07-20T04:34:12.696Z,99644.00
2018-07-20T04:36:42.692Z,99640.00
2018-07-20T04:39:14.528Z,99652.00
2018-07-20T04:41:44.697Z,99653.00
2018-07-20T04:44:14.495Z,99660.00
2018-07-20T04:46:44.463Z,99657.00
2018-07-20T04:49:14.395Z,99655.00
2018-07-20T04:51:44.332Z,99657.00
2018-07-20T04:54:14.355Z,99653.00
2018-07-20T04:56:44.273Z,99649.00
2018-07-20T04:59:14.315Z,99653.00
2018-07-20T05:01:44.229Z,99648.00
2018-07-20T05:04:14.198Z,99652.00
2018-07-20T05:06:44.186Z,99660.00
2018-07-20T05:09:14.160Z,99653.00
2018-07-20T05:11:44.160Z,99657.00
2018-07-20T05:14:14.104Z,99656.00
2018-07-20T05:16:44.064Z,99653.00
2018-07-20T05:19:14.048Z,99654.00
2018-07-20T05:21:44.053Z,99652.00
2018-07-20T05:24:14.056Z,99650.00
2018-07-20T05:26:44.039Z,99651.00
2018-07-20T05:29:13.760Z,99647.00
2018-07-20T05:31:43.580Z,99647.00
2018-07-20T05:34:13.552Z,99650.00
2018-07-20T05:36:43.532Z,99652.00
2018-07-20T05:39:13.511Z,99646.00
2018-07-20T05:41:43.393Z,99645.00
2018-07-20T05:44:13.280Z,99640.00
2018-07-20T05:46:43.362Z,99637.00
2018-07-20T05:49:13.380Z,99641.00
2018-07-20T05:51:43.360Z,99637.00
2018-07-20T05:54:13.455Z,99629.00
2018-07-20T05:56:43.151Z,99636.00
2018-07-20T05:59:13.048Z,99629.00
2018-07-20T06:01:42.829Z,99628.00
2018-07-20T06:04:12.728Z,99623.00
2018-07-20T06:06:42.790Z,99618.00
2018-07-20T06:09:13.000Z,99617.00
2018-07-20T06:11:42.954Z,99623.00
2018-07-20T06:14:13.142Z,99624.00
2018-07-20T06:16:43.016Z,99616.00
2018-07-20T06:19:12.944Z,99615.00
2018-07-20T06:21:42.980Z,99612.00
2018-07-20T06:24:13.007Z,99605.00
2018-07-20T06:26:43.043Z,99609.00
2018-07-20T06:29:12.862Z,99608.00
2018-07-20T06:31:42.726Z,99612.00
2018-07-20T06:34:13.368Z,99609.00
2018-07-20T06:36:43.261Z,99606.00
2018-07-20T06:39:13.440Z,99611.00
2018-07-20T06:41:43.465Z,99610.00
2018-07-20T06:44:13.174Z,99611.00
2018-07-20T06:46:43.029Z,99615.00
2018-07-20T06:49:13.214Z,99611.00
2018-07-20T06:51:43.203Z,99616.00
2018-07-20T06:54:13.164Z,99614.00
2018-07-20T06:56:43.235Z,99614.00
2018-07-20T06:59:13.244Z,99610.00
2018-07-20T07:01:43.282Z,99616.00
2018-07-20T07:04:13.250Z,99618.00
2018-07-20T07:06:43.428Z,99617.00
2018-07-20T07:09:13.464Z,99615.00
2018-07-20T07:11:43.489Z,99608.00
2018-07-20T07:14:13.472Z,99604.00
2018-07-20T07:16:43.452Z,99608.00
2018-07-20T07:19:13.478Z,99611.00
2018-07-20T07:21:43.424Z,99605.00
2018-07-20T07:24:13.392Z,99601.00
2018-07-20T07:26:43.230Z,99596.00
2018-07-20T07:29:13.245Z,99590.00
2018-07-20T07:31:43.223Z,99589.00
2018-07-20T07:34:13.237Z,99584.00
2018-07-20T07:36:43.285Z,99583.00
2018-07-20T07:39:13.462Z,99591.00
2018-07-20T07:41:43.446Z,99580.00
2018-07-20T07:44:13.480Z,99586.00
2018-07-20T07:46:43.269Z,99585.00
2018-07-20T07:49:15.541Z,99585.00
2018-07-20T07:51:45.528Z,99582.00
2018-07-20T07:54:15.906Z,99580.00
2018-07-20T07:56:46.804Z,99586.00
2018-07-20T07:59:16.714Z,99586.00
2018-07-20T08:01:47.075Z,99585.00
2018-07-20T08:04:17.410Z,99582.00
2018-07-20T08:06:47.377Z,99587.00
2018-07-20T08:09:17.491Z,99586.00
2018-07-20T08:11:47.463Z,99582.00
2018-07-20T08:14:17.443Z,99573.00
2018-07-20T08:16:47.415Z,99571.00
2018-07-20T08:19:17.363Z,99571.00
2018-07-20T08:21:47.324Z,99568.00
2018-07-20T08:24:17.312Z,99569.00
2018-07-20T08:26:47.289Z,99573.00
2018-07-20T08:29:17.375Z,99572.00
2018-07-20T08:31:47.348Z,99574.00
2018-07-20T08:34:17.316Z,99568.00
2018-07-20T08:36:47.280Z,99569.00
2018-07-20T08:39:17.280Z,99571.00
2018-07-20T08:41:47.244Z,99562.00
2018-07-20T08:44:17.245Z,99565.00
2018-07-20T08:46:47.207Z,99562.00
2018-07-20T08:49:17.169Z,99554.00
2018-07-20T08:51:46.976Z,99556.00
2018-07-20T08:54:16.925Z,99557.00
2018-07-20T08:56:46.934Z,99550.00
2018-07-20T08:59:16.871Z,99550.00
2018-07-20T09:01:46.840Z,99547.00
2018-07-20T09:04:16.895Z,99551.00
2018-07-20T09:06:46.855Z,99547.00
2018-07-20T09:09:16.828Z,99539.00
2018-07-20T09:11:46.792Z,99535.00
2018-07-20T09:14:16.772Z,99542.00
2018-07-20T09:16:46.764Z,99536.00
2018-07-20T09:19:16.597Z,99536.00
2018-07-20T09:21:46.404Z,99536.00
2018-07-20T09:24:16.388Z,99526.00
2018-07-20T09:26:46.372Z,99525.00
2018-07-20T09:29:16.348Z,99524.00
2018-07-20T09:31:46.320Z,99523.00
2018-07-20T09:34:16.297Z,99524.00
2018-07-20T09:36:46.317Z,99524.00
2018-07-20T09:39:16.284Z,99525.00
2018-07-20T09:41:46.248Z,99519.00
2018-07-20T09:44:16.272Z,99510.00
2018-07-20T09:46:46.220Z,99509.00
2018-07-20T09:49:16.252Z,99506.00
2018-07-20T09:51:46.294Z,99511.00
2018-07-20T09:54:16.223Z,99512.00
2018-07-20T09:56:46.242Z,99516.00
2018-07-20T09:59:16.274Z,99511.00
2018-07-20T10:01:46.452Z,99505.00
2018-07-20T10:04:16.423Z,99503.00
2018-07-20T10:06:46.380Z,99506.00
2018-07-20T10:09:16.372Z,99511.00
2018-07-20T10:11:46.336Z,99504.00
2018-07-20T10:14:16.322Z,99504.00
2018-07-20T10:16:46.292Z,99505.00
2018-07-20T10:19:16.263Z,99492.00
2018-07-20T10:21:46.244Z,99490.00
2018-07-20T10:24:16.328Z,99487.00
2018-07-20T10:26:46.408Z,99481.00
2018-07-20T10:29:16.336Z,99484.00
2018-07-20T10:31:46.292Z,99476.00
2018-07-20T10:34:16.268Z,99475.00
2018-07-20T10:36:46.357Z,99474.00
2018-07-20T10:39:16.269Z,99465.00
2018-07-20T10:41:46.241Z,99469.00
2018-07-20T10:44:16.221Z,99470.00
2018-07-20T10:46:46.180Z,99466.00
2018-07-20T10:49:16.136Z,99465.00
2018-07-20T10:51:46.103Z,99469.00
2018-07-20T10:54:16.073Z,99458.00
2018-07-20T10:56:46.064Z,99459.00
2018-07-20T10:59:16.032Z,99453.00
2018-07-20T11:01:46.063Z,99452.00
2018-07-20T11:04:16.155Z,99452.00
2018-07-20T11:06:46.085Z,99446.00
2018-07-20T11:09:16.220Z,99446.00
2018-07-20T11:11:46.135Z,99440.00
2018-07-20T11:14:16.112Z,99443.00
2018-07-20T11:16:46.088Z,99442.00
2018-07-20T11:19:16.047Z,99439.00
2018-07-20T11:21:46.005Z,99430.00
2018-07-20T11:24:16.304Z,99430.00
2018-07-20T11:26:46.332Z,99428.00
2018-07-20T11:29:16.336Z,99419.00
2018-07-20T11:31:46.283Z,99423.00
2018-07-20T11:34:16.247Z,99419.00
2018-07-20T11:36:46.251Z,99415.00
2018-07-20T11:39:16.307Z,99412.00
2018-07-20T11:41:46.320Z,99408.00
2018-07-20T11:44:16.372Z,99411.00
2018-07-20T11:46:46.327Z,99410.00
2018-07-20T11:49:16.393Z,99401.00
2018-07-20T11:51:46.383Z,99397.00
2018-07-20T11:54:16.386Z,99398.00
2018-07-20T11:56:46.369Z,99396.00
2018-07-20T11:59:16.432Z,99392.00
2018-07-20T12:01:46.484Z,99388.00
2018-07-20T12:04:16.452Z,99385.00
2018-07-20T12:06:46.456Z,99381.00
2018-07-20T12:09:16.485Z,99376.00
2018-07-20T12:11:46.683Z,99374.00
2018-07-20T12:14:17.064Z,99374.00
2018-07-20T12:16:47.118Z,99374.00
2018-07-20T12:19:17.046Z,99373.00
2018-07-20T12:21:47.114Z,99375.00
2018-07-20T12:24:17.052Z,99371.00
2018-07-20T12:26:47.085Z,99368.00
2018-07-20T12:29:17.060Z,99369.00
2018-07-20T12:31:47.020Z,99364.00
2018-07-20T12:34:17.000Z,99352.00
2018-07-20T12:36:46.985Z,99353.00
2018-07-20T12:39:16.968Z,99355.00
2018-07-20T12:41:47.029Z,99351.00
2018-07-20T12:44:17.021Z,99354.00
2018-07-20T12:46:47.002Z,99351.00
2018-07-20T12:49:16.972Z,99352.00
2018-07-20T12:51:46.949Z,99351.00
2018-07-20T12:54:16.908Z,99348.00
2018-07-20T12:56:46.959Z,99346.00
2018-07-20T12:59:16.928Z,99340.00
2018-07-20T13:01:46.912Z,99341.00
2018-07-20T13:04:17.029Z,99336.00
2018-07-20T13:06:47.032Z,99339.00
2018-07-20T13:09:17.011Z,99336.00
2018-07-20T13:11:47.035Z,99335.00
2018-07-20T13:14:16.991Z,99337.00
2018-07-20T13:16:46.996Z,99331.00
2018-07-20T13:19:16.972Z,99333.00
2018-07-20T13:21:46.953Z,99326.00
2018-07-20T13:24:16.952Z,99325.00
2018-07-20T13:26:46.945Z,99324.00
2018-07-20T13:29:16.912Z,99316.00
2018-07-20T13:31:46.648Z,99313.00
2018-07-20T13:34:16.553Z,99309.00
2018-07-20T13:36:46.585Z,99306.00
2018-07-20T13:39:16.559Z,99303.00
2018-07-20T13:41:46.566Z,99300.00
2018-07-20T13:44:16.553Z,99301.00
2018-07-20T13:46:46.528Z,99299.00
2018-07-20T13:49:16.535Z,99297.00
2018-07-20T13:51:46.496Z,99297.00
2018-07-20T13:54:16.470Z,99297.00
2018-07-20T13:56:46.445Z,99291.00
2018-07-20T13:59:16.448Z,99299.00
2018-07-20T14:01:46.437Z,99299.00
2018-07-20T14:04:16.396Z,99298.00
2018-07-20T14:06:46.448Z,99291.00
2018-07-20T14:09:16.484Z,99292.00
2018-07-20T14:11:46.324Z,99301.00
2018-07-20T14:14:16.271Z,99299.00
2018-07-20T14:16:46.427Z,99299.00
2018-07-20T14:19:16.416Z,99295.00
2018-07-20T14:21:46.431Z,99293.00
2018-07-20T14:24:16.399Z,99289.00
2018-07-20T14:26:46.392Z,99288.00
2018-07-20T14:29:16.437Z,99287.00
2018-07-20T14:31:46.455Z,99290.00
2018-07-20T14:34:16.372Z,99285.00
2018-07-20T14:36:46.333Z,99289.00
2018-07-20T14:39:16.306Z,99281.00
2018-07-20T14:41:46.377Z,99281.00
2018-07-20T14:44:16.403Z,99287.00
2018-07-20T14:46:46.459Z,99284.00
2018-07-20T14:49:16.524Z,99283.00
2018-07-20T14:51:46.601Z,99281.00
2018-07-20T14:54:16.617Z,99275.00
2018-07-20T14:56:46.673Z,99274.00
2018-07-20T14:59:17.424Z,99263.00
2018-07-20T15:01:47.412Z,99262.00
2018-07-20T15:04:17.478Z,99255.00
2018-07-20T15:06:48.680Z,99252.00
2018-07-20T15:09:18.811Z,99247.00
2018-07-20T15:11:48.920Z,99252.00
2018-07-20T15:14:18.723Z,99241.00
2018-07-20T15:16:48.569Z,99238.00
2018-07-20T15:19:18.589Z,99237.00
2018-07-20T15:21:48.390Z,99243.00
2018-07-20T15:24:18.450Z,99232.00
2018-07-20T15:26:48.431Z,99236.00
2018-07-20T15:29:18.520Z,99237.00
2018-07-20T15:31:48.550Z,99243.00
2018-07-20T15:34:18.493Z,99233.00
2018-07-20T15:36:48.536Z,99233.00
2018-07-20T15:39:18.520Z,99233.00
2018-07-20T15:41:48.493Z,99229.00
2018-07-20T15:44:18.540Z,99223.00
2018-07-20T15:46:48.750Z,99222.00
2018-07-20T15:49:18.516Z,99222.00
2018-07-20T15:53:35.607Z,99225.00
2018-07-20T15:54:19.620Z,99217.00
2018-07-20T15:56:49.601Z,99223.00
2018-07-20T15:59:19.620Z,99222.00
2018-07-20T16:01:49.880Z,99216.00
2018-07-20T16:04:19.848Z,99215.00
2018-07-20T16:06:49.905Z,99225.00
2018-07-20T16:09:19.847Z,99228.00
2018-07-20T16:11:49.844Z,99228.00
2018-07-20T16:14:20.509Z,99228.00
2018-07-20T16:16:50.456Z,99229.00
2018-07-20T16:19:20.424Z,99233.00
2018-07-20T16:21:50.486Z,99232.00
2018-07-20T16:24:20.496Z,99227.00
2018-07-20T16:26:50.488Z,99224.00
2018-07-20T16:29:20.621Z,99221.00
2018-07-20T16:31:50.865Z,99218.00
2018-07-20T16:34:20.965Z,99219.00
2018-07-20T16:36:50.916Z,99210.00
2018-07-20T16:39:20.889Z,99205.00
2018-07-20T16:41:51.050Z,99204.00
2018-07-20T16:44:21.216Z,99205.00
2018-07-20T16:46:51.244Z,99203.00
2018-07-20T16:49:21.358Z,99205.00
2018-07-20T16:51:51.342Z,99203.00
2018-07-20T16:54:21.422Z,99206.00
2018-07-20T16:56:51.355Z,99210.00
2018-07-20T16:59:21.337Z,99204.00
2018-07-20T17:01:51.313Z,99211.00
2018-07-20T17:04:21.293Z,99206.00
2018-07-20T17:06:51.269Z,99195.00
2018-07-20T17:09:21.249Z,99198.00
2018-07-20T17:11:51.313Z,99196.00
2018-07-20T17:14:21.440Z,99192.00
2018-07-20T17:16:51.405Z,99193.00
2018-07-20T17:19:21.397Z,99191.00
2018-07-20T17:21:51.356Z,99192.00
2018-07-20T17:24:21.386Z,99198.00
2018-07-20T17:26:51.348Z,99206.00
2018-07-20T17:29:21.957Z,99206.00
2018-07-20T17:31:51.915Z,99213.00
2018-07-20T17:34:21.888Z,99220.00
2018-07-20T17:36:51.844Z,99225.00
2018-07-20T17:39:21.831Z,99226.00
2018-07-20T17:41:51.800Z,99233.00
2018-07-20T17:44:21.942Z,99231.00
2018-07-20T17:46:51.772Z,99234.00
2018-07-20T17:49:21.801Z,99225.00
2018-07-20T17:51:51.831Z,99226.00
2018-07-20T17:54:21.784Z,99227.00
2018-07-20T17:56:51.753Z,99224.00
2018-07-20T17:59:21.793Z,99225.00
2018-07-20T18:01:51.747Z,99220.00
2018-07-20T18:04:21.748Z,99221.00
2018-07-20T18:06:51.724Z,99226.00
2018-07-20T18:09:21.850Z,99229.00
2018-07-20T18:11:51.764Z,99229.00
2018-07-20T18:14:21.769Z,99236.00
2018-07-20T18:16:51.726Z,99240.00
2018-07-20T18:19:22.021Z,99240.00
2018-07-20T18:21:52.263Z,99238.00
2018-07-20T18:24:22.335Z,99239.00
2018-07-20T18:26:52.578Z,99241.00
2018-07-20T18:29:22.715Z,99247.00
2018-07-20T18:31:52.837Z,99245.00
2018-07-20T18:34:22.972Z,99241.00
2018-07-20T18:36:53.005Z,99237.00
2018-07-20T18:39:22.839Z,99238.00
2018-07-20T18:41:52.906Z,99237.00
2018-07-20T18:44:23.061Z,99233.00
2018-07-20T18:46:53.224Z,99236.00
2018-07-20T18:49:23.405Z,99239.00
2018-07-20T18:51:53.389Z,99226.00
2018-07-20T18:54:23.833Z,99231.00
2018-07-20T18:56:54.177Z,99230.00
2018-07-20T18:59:24.175Z,99226.00
2018-07-20T19:01:54.234Z,99230.00
2018-07-20T19:04:24.366Z,99233.00
2018-07-20T19:06:54.396Z,99230.00
2018-07-20T19:09:24.356Z,99232.00
2018-07-20T19:11:54.359Z,99235.00
2018-07-20T19:14:24.387Z,99229.00
2018-07-20T19:16:54.347Z,99225.00
2018-07-20T19:19:24.343Z,99218.00
2018-07-20T19:21:55.183Z,99219.00
2018-07-20T19:24:25.188Z,99225.00
2018-07-20T19:26:55.173Z,99222.00
2018-07-20T19:29:25.244Z,99228.00
2018-07-20T19:31:55.218Z,99228.00
2018-07-20T19:34:25.146Z,99226.00
2018-07-20T19:36:55.116Z,99222.00
2018-07-20T19:39:25.100Z,99226.00
2018-07-20T19:41:55.118Z,99227.00
2018-07-20T19:44:25.099Z,99229.00
2018-07-20T19:46:54.832Z,99227.00
2018-07-20T19:49:24.682Z,99230.00
2018-07-20T19:51:54.641Z,99236.00
2018-07-20T19:54:24.635Z,99236.00
2018-07-20T19:56:54.620Z,99233.00
2018-07-20T19:59:24.598Z,99235.00
2018-07-20T20:01:54.592Z,99233.00
2018-07-20T20:04:24.655Z,99232.00
2018-07-20T20:06:54.626Z,99237.00
2018-07-20T20:09:24.652Z,99233.00
2018-07-20T20:11:54.744Z,99233.00
2018-07-20T20:14:24.816Z,99233.00
2018-07-20T20:16:55.057Z,99232.00
2018-07-20T20:19:25.394Z,99237.00
2018-07-20T20:21:55.375Z,99236.00
2018-07-20T20:24:25.363Z,99241.00
2018-07-20T20:26:55.386Z,99241.00
2018-07-20T20:29:25.614Z,99238.00
2018-07-20T20:31:55.549Z,99239.00
2018-07-20T20:34:25.484Z,99241.00
2018-07-20T20:36:55.508Z,99242.00
2018-07-20T20:39:25.558Z,99244.00
2018-07-20T20:41:55.528Z,99236.00
2018-07-20T20:44:25.523Z,99235.00
2018-07-20T20:46:55.452Z,99240.00
2018-07-20T20:49:25.416Z,99241.00
2018-07-20T20:51:55.388Z,99239.00
2018-07-20T20:54:25.376Z,99232.00
2018-07-20T20:56:55.392Z,99241.00
2018-07-20T20:59:25.372Z,99240.00
2018-07-20T21:01:55.407Z,99243.00
2018-07-20T21:04:25.468Z,99250.00
2018-07-20T21:06:55.387Z,99272.00
2018-07-20T21:09:25.397Z,99251.00
2018-07-20T21:11:55.541Z,99257.00
2018-07-20T21:14:25.465Z,99252.00
2018-07-20T21:16:55.284Z,99250.00
2018-07-20T21:19:24.918Z,99242.00
2018-07-20T21:21:54.468Z,99256.00
2018-07-20T21:24:24.317Z,99255.00
2018-07-20T21:26:54.384Z,99258.00
2018-07-20T21:29:24.296Z,99256.00
2018-07-20T21:31:54.328Z,99251.00
2018-07-20T21:34:24.291Z,99250.00
2018-07-20T21:36:54.302Z,99257.00
2018-07-20T21:39:24.228Z,99258.00
2018-07-20T21:41:54.216Z,99260.00
2018-07-20T21:44:23.943Z,99256.00
2018-07-20T21:46:54.017Z,99246.00
2018-07-20T21:49:24.048Z,99254.00
2018-07-20T21:51:54.181Z,99255.00
2018-07-20T21:54:24.306Z,99259.00
2018-07-20T21:56:54.320Z,99261.00
2018-07-20T21:59:24.297Z,99264.00
2018-07-20T22:01:54.276Z,99264.00
2018-07-20T22:04:24.248Z,99269.00
2018-07-20T22:06:54.265Z,99262.00
2018-07-20T22:09:24.224Z,99259.00
2018-07-20T22:11:54.227Z,99263.00
2018-07-20T22:14:24.255Z,99262.00
2018-07-20T22:16:54.307Z,99266.00
2018-07-20T22:19:24.111Z,99262.00
2018-07-20T22:21:53.937Z,99261.00
2018-07-20T22:24:23.776Z,99263.00
2018-07-20T22:26:53.447Z,99261.00
2018-07-20T22:29:23.313Z,99259.00
2018-07-20T22:31:53.269Z,99264.00
2018-07-20T22:34:23.420Z,99263.00
2018-07-20T22:36:53.406Z,99258.00
2018-07-20T22:39:23.348Z,99259.00
2018-07-20T22:41:53.337Z,99254.00
2018-07-20T22:44:23.417Z,99253.00
2018-07-20T22:46:53.428Z,99251.00
2018-07-20T22:49:23.460Z,99250.00
2018-07-20T22:51:53.504Z,99249.00
2018-07-20T22:54:23.521Z,99246.00
2018-07-20T22:56:53.552Z,99244.00
2018-07-20T22:59:23.675Z,99241.00
2018-07-20T23:01:53.617Z,99249.00
2018-07-20T23:04:23.598Z,99250.00
2018-07-20T23:06:53.581Z,99249.00
2018-07-20T23:09:23.595Z,99251.00
2018-07-20T23:11:53.588Z,99246.00
2018-07-20T23:14:23.666Z,99252.00
2018-07-20T23:16:53.604Z,99249.00
2018-07-20T23:19:23.573Z,99246.00
2018-07-20T23:21:53.656Z,99251.00
2018-07-20T23:24:23.584Z,99248.00
2018-07-20T23:26:53.602Z,99242.00
2018-07-20T23:29:23.686Z,99241.00
2018-07-20T23:31:53.595Z,99241.00
2018-07-20T23:34:23.709Z,99241.00
2018-07-20T23:36:53.652Z,99245.00
2018-07-20T23:39:23.372Z,99238.00
2018-07-20T23:41:53.288Z,99238.00
2018-07-20T23:44:23.208Z,99236.00
2018-07-20T23:46:53.250Z,99224.00
2018-07-20T23:49:22.948Z,99227.00
2018-07-20T23:51:52.787Z,99229.00
2018-07-20T23:54:22.509Z,99219.00
2018-07-20T23:56:52.434Z,99228.00
2018-07-20T23:59:22.484Z,99233.00
